createdAt,value
2023-04-16T00:00:43.837Z,39.20
2023-04-16T00:01:43.876Z,37.90
2023-04-16T00:02:43.929Z,42.80
2023-04-16T00:03:44.118Z,39.40
2023-04-16T00:04:43.857Z,40.40
2023-04-16T00:05:43.776Z,40.10
2023-04-16T00:06:43.753Z,40.80
2023-04-16T00:07:43.764Z,40.10
2023-04-16T00:08:43.827Z,40.80
2023-04-16T00:09:43.761Z,39.80
2023-04-16T00:10:43.727Z,42.80
2023-04-16T00:11:43.717Z,41.40
2023-04-16T00:12:43.692Z,37.70
2023-04-16T00:13:43.691Z,37.60
2023-04-16T00:14:43.672Z,36.60
2023-04-16T00:15:43.689Z,36.60
2023-04-16T00:16:43.692Z,39.30
2023-04-16T00:17:43.678Z,39.80
2023-04-16T00:18:43.626Z,39.00
2023-04-16T00:19:43.616Z,39.70
2023-04-16T00:20:43.637Z,39.10
2023-04-16T00:21:43.599Z,41.40
2023-04-16T00:22:43.578Z,41.50
2023-04-16T00:23:43.577Z,41.40
2023-04-16T00:24:43.557Z,39.00
2023-04-16T00:25:43.560Z,39.50
2023-04-16T00:26:43.753Z,36.80
2023-04-16T00:27:43.529Z,39.20
2023-04-16T00:28:43.512Z,40.40
2023-04-16T00:29:43.518Z,41.20
2023-04-16T00:30:43.512Z,41.50
2023-04-16T00:31:43.487Z,40.60
2023-04-16T00:32:43.524Z,40.00
2023-04-16T00:33:43.460Z,41.20
2023-04-16T00:34:43.442Z,40.00
2023-04-16T00:35:43.439Z,38.80
2023-04-16T00:36:43.455Z,38.70
2023-04-16T00:37:43.441Z,37.70
2023-04-16T00:38:43.408Z,40.20
2023-04-16T00:39:43.392Z,38.60
2023-04-16T00:40:43.373Z,38.50
2023-04-16T00:41:43.380Z,42.50
2023-04-16T00:42:43.376Z,42.80
2023-04-16T00:43:43.362Z,42.00
2023-04-16T00:44:43.337Z,40.80
2023-04-16T00:45:43.325Z,39.90
2023-04-16T00:46:43.351Z,41.60
2023-04-16T00:47:43.315Z,41.80
2023-04-16T00:48:43.306Z,39.00
2023-04-16T00:49:43.280Z,41.20
2023-04-16T00:50:43.272Z,41.80
2023-04-16T00:51:43.257Z,42.40
2023-04-16T00:52:43.248Z,44.30
2023-04-16T00:53:43.271Z,41.90
2023-04-16T00:54:43.220Z,42.60
2023-04-16T00:55:43.212Z,44.10
2023-04-16T00:56:43.204Z,43.60
2023-04-16T00:57:43.197Z,43.40
2023-04-16T00:58:43.208Z,42.70
2023-04-16T00:59:43.200Z,45.00
2023-04-16T01:00:43.158Z,44.30
2023-04-16T01:01:43.158Z,45.00
2023-04-16T01:02:43.258Z,45.80
2023-04-16T01:03:43.392Z,42.20
2023-04-16T01:04:43.138Z,44.80
2023-04-16T01:05:43.107Z,42.60
2023-04-16T01:06:43.091Z,45.10
2023-04-16T01:07:43.088Z,41.80
2023-04-16T01:08:43.077Z,43.00
2023-04-16T01:09:43.064Z,42.50
2023-04-16T01:10:43.076Z,44.20
2023-04-16T01:11:43.040Z,44.40
2023-04-16T01:12:43.019Z,44.50
2023-04-16T01:13:43.023Z,40.20
2023-04-16T01:14:43.008Z,41.40
2023-04-16T01:15:43.039Z,45.80
2023-04-16T01:16:42.997Z,41.50
2023-04-16T01:17:43.017Z,44.90
2023-04-16T01:18:42.963Z,41.50
2023-04-16T01:19:42.957Z,44.40
2023-04-16T01:20:42.933Z,40.10
2023-04-16T01:21:42.948Z,42.20
2023-04-16T01:22:42.918Z,40.90
2023-04-16T01:23:47.941Z,43.70
2023-04-16T01:24:42.891Z,45.90
2023-04-16T01:25:42.879Z,44.90
2023-04-16T01:26:42.889Z,44.00
2023-04-16T01:27:42.860Z,44.30
2023-04-16T01:28:42.850Z,43.20
2023-04-16T01:29:42.839Z,43.00
2023-04-16T01:30:42.834Z,44.40
2023-04-16T01:31:42.902Z,44.30
2023-04-16T01:32:42.834Z,46.80
2023-04-16T01:33:42.800Z,41.10
2023-04-16T01:34:42.782Z,42.90
2023-04-16T01:35:42.772Z,43.00
2023-04-16T01:36:42.777Z,47.40
2023-04-16T01:37:42.762Z,44.80
2023-04-16T01:38:42.749Z,44.10
2023-04-16T01:39:42.730Z,45.80
2023-04-16T01:40:42.713Z,46.50
2023-04-16T01:41:42.815Z,45.00
2023-04-16T01:42:42.692Z,47.50
2023-04-16T01:43:42.695Z,44.00
2023-04-16T01:44:42.676Z,46.30
2023-04-16T01:45:42.709Z,45.30
2023-04-16T01:46:42.700Z,46.10
2023-04-16T01:47:42.678Z,43.00
2023-04-16T01:48:42.642Z,41.50
2023-04-16T01:49:42.623Z,42.50
2023-04-16T01:50:42.609Z,45.50
2023-04-16T01:51:42.617Z,44.10
2023-04-16T01:52:42.591Z,46.50
2023-04-16T01:53:42.569Z,43.80
2023-04-16T01:54:42.565Z,44.50
2023-04-16T01:55:42.559Z,44.30
2023-04-16T01:56:42.559Z,43.00
2023-04-16T01:57:42.542Z,43.00
2023-04-16T01:58:42.519Z,44.30
2023-04-16T01:59:42.506Z,44.90
2023-04-16T02:00:42.533Z,46.00
2023-04-16T02:01:42.551Z,45.80
2023-04-16T02:02:42.601Z,47.50
2023-04-16T02:03:42.618Z,47.00
2023-04-16T02:04:42.448Z,45.60
2023-04-16T02:05:42.444Z,45.80
2023-04-16T02:06:42.442Z,45.80
2023-04-16T02:07:42.419Z,47.20
2023-04-16T02:08:42.404Z,46.00
2023-04-16T02:09:42.394Z,47.10
2023-04-16T02:10:42.393Z,47.30
2023-04-16T02:11:42.400Z,49.20
2023-04-16T02:12:42.434Z,45.80
2023-04-16T02:13:42.350Z,44.30
2023-04-16T02:14:42.336Z,47.60
2023-04-16T02:15:42.322Z,46.60
2023-04-16T02:16:42.389Z,46.40
2023-04-16T02:17:42.334Z,49.20
2023-04-16T02:18:42.286Z,46.90
2023-04-16T02:19:42.272Z,50.80
2023-04-16T02:20:42.262Z,49.90
2023-04-16T02:21:42.274Z,49.70
2023-04-16T02:22:42.243Z,50.10
2023-04-16T02:23:42.237Z,47.70
2023-04-16T02:24:42.227Z,46.70
2023-04-16T02:25:42.210Z,46.60
2023-04-16T02:26:42.223Z,46.10
2023-04-16T02:27:42.192Z,47.90
2023-04-16T02:28:42.179Z,47.70
2023-04-16T02:29:42.165Z,47.40
2023-04-16T02:30:42.161Z,48.20
2023-04-16T02:31:42.185Z,47.20
2023-04-16T02:32:42.181Z,47.10
2023-04-16T02:33:42.120Z,46.20
2023-04-16T02:34:42.110Z,45.80
2023-04-16T02:35:42.100Z,45.90
2023-04-16T02:36:42.111Z,49.10
2023-04-16T02:37:42.076Z,46.70
2023-04-16T02:38:42.066Z,45.90
2023-04-16T02:39:42.046Z,48.10
2023-04-16T02:40:42.056Z,47.90
2023-04-16T02:41:42.078Z,47.80
2023-04-16T02:42:42.137Z,44.50
2023-04-16T02:43:42.006Z,47.30
2023-04-16T02:44:42.007Z,49.50
2023-04-16T02:45:42.015Z,48.50
2023-04-16T02:46:41.995Z,46.90
2023-04-16T02:47:41.994Z,48.30
2023-04-16T02:48:41.953Z,49.20
2023-04-16T02:49:41.938Z,48.90
2023-04-16T02:50:41.933Z,48.30
2023-04-16T02:51:41.933Z,48.60
2023-04-16T02:52:41.908Z,48.40
2023-04-16T02:53:41.896Z,48.00
2023-04-16T02:54:41.887Z,49.00
2023-04-16T02:55:41.870Z,48.80
2023-04-16T02:56:41.883Z,48.50
2023-04-16T02:57:41.848Z,45.80
2023-04-16T02:58:41.834Z,46.90
2023-04-16T02:59:41.833Z,46.50
2023-04-16T03:00:41.817Z,48.20
2023-04-16T03:01:41.883Z,47.00
2023-04-16T03:02:41.869Z,51.00
2023-04-16T03:03:41.781Z,48.50
2023-04-16T03:04:41.943Z,50.00
2023-04-16T03:05:41.755Z,48.00
2023-04-16T03:06:41.769Z,45.90
2023-04-16T03:07:41.738Z,48.80
2023-04-16T03:08:41.726Z,49.10
2023-04-16T03:09:41.729Z,49.00
2023-04-16T03:10:41.729Z,46.30
2023-04-16T03:11:41.712Z,49.30
2023-04-16T03:12:41.690Z,50.10
2023-04-16T03:13:41.673Z,51.00
2023-04-16T03:14:41.674Z,49.00
2023-04-16T03:15:41.685Z,49.00
2023-04-16T03:16:41.667Z,48.40
2023-04-16T03:17:41.660Z,46.90
2023-04-16T03:18:41.618Z,47.10
2023-04-16T03:19:41.623Z,47.00
2023-04-16T03:20:41.592Z,50.80
2023-04-16T03:21:41.619Z,49.80
2023-04-16T03:22:41.586Z,49.20
2023-04-16T03:23:41.558Z,49.60
2023-04-16T03:24:41.562Z,48.30
2023-04-16T03:25:41.541Z,50.20
2023-04-16T03:26:41.557Z,50.00
2023-04-16T03:27:41.521Z,49.90
2023-04-16T03:28:41.504Z,49.10
2023-04-16T03:29:41.500Z,50.00
2023-04-16T03:30:41.485Z,48.20
2023-04-16T03:31:41.568Z,50.00
2023-04-16T03:32:41.596Z,50.30
2023-04-16T03:33:41.484Z,48.30
2023-04-16T03:34:41.465Z,47.50
2023-04-16T03:35:41.429Z,48.70
2023-04-16T03:36:41.440Z,45.10
2023-04-16T03:37:41.404Z,49.80
2023-04-16T03:38:41.399Z,49.70
2023-04-16T03:39:41.381Z,48.50
2023-04-16T03:40:41.378Z,48.30
2023-04-16T03:41:41.375Z,47.40
2023-04-16T03:42:41.367Z,47.60
2023-04-16T03:43:41.359Z,50.20
2023-04-16T03:44:41.326Z,47.60
2023-04-16T03:45:41.318Z,47.80
2023-04-16T03:46:41.354Z,49.40
2023-04-16T03:47:41.325Z,46.60
2023-04-16T03:48:41.282Z,46.40
2023-04-16T03:49:41.263Z,47.30
2023-04-16T03:50:41.267Z,49.50
2023-04-16T03:51:41.276Z,48.20
2023-04-16T03:52:41.248Z,46.00
2023-04-16T03:53:41.252Z,45.30
2023-04-16T03:54:41.221Z,46.40
2023-04-16T03:55:41.222Z,46.10
2023-04-16T03:56:41.215Z,45.20
2023-04-16T03:57:41.180Z,48.40
2023-04-16T03:58:41.206Z,46.10
2023-04-16T03:59:41.154Z,46.70
2023-04-16T04:00:41.178Z,44.10
2023-04-16T04:01:41.192Z,47.60
2023-04-16T04:02:41.292Z,47.70
2023-04-16T04:03:41.338Z,48.10
2023-04-16T04:04:41.293Z,48.60
2023-04-16T04:05:41.120Z,48.50
2023-04-16T04:06:41.108Z,48.50
2023-04-16T04:07:41.116Z,46.00
2023-04-16T04:08:41.069Z,48.30
2023-04-16T04:09:41.052Z,48.00
2023-04-16T04:10:41.049Z,49.50
2023-04-16T04:11:41.049Z,48.20
2023-04-16T04:12:41.028Z,48.70
2023-04-16T04:13:41.022Z,48.60
2023-04-16T04:14:40.992Z,46.80
2023-04-16T04:15:40.996Z,47.80
2023-04-16T04:16:41.194Z,48.30
2023-04-16T04:17:41.050Z,47.30
2023-04-16T04:18:42.183Z,47.70
2023-04-16T04:19:47.229Z,47.20
2023-04-16T04:20:40.951Z,46.40
2023-04-16T04:21:40.966Z,47.30
2023-04-16T04:22:40.921Z,46.10
2023-04-16T04:23:40.900Z,46.60
2023-04-16T04:24:40.884Z,46.00
2023-04-16T04:25:40.860Z,47.30
2023-04-16T04:26:40.908Z,47.80
2023-04-16T04:27:40.863Z,46.60
2023-04-16T04:28:40.838Z,46.10
2023-04-16T04:29:40.825Z,46.60
2023-04-16T04:30:40.818Z,45.50
2023-04-16T04:31:40.890Z,45.40
2023-04-16T04:32:40.801Z,44.60
2023-04-16T04:33:41.311Z,46.60
2023-04-16T04:34:40.792Z,46.30
2023-04-16T04:35:40.754Z,45.20
2023-04-16T04:36:40.774Z,47.50
2023-04-16T04:37:40.748Z,45.80
2023-04-16T04:38:40.726Z,46.20
2023-04-16T04:39:40.712Z,47.20
2023-04-16T04:40:40.693Z,44.60
2023-04-16T04:41:40.712Z,45.40
2023-04-16T04:42:40.687Z,46.60
2023-04-16T04:43:40.680Z,45.60
2023-04-16T04:44:40.655Z,44.80
2023-04-16T04:45:40.652Z,45.00
2023-04-16T04:46:40.680Z,44.80
2023-04-16T04:47:40.702Z,44.40
2023-04-16T04:48:40.609Z,45.80
2023-04-16T04:49:40.594Z,47.30
2023-04-16T04:50:40.589Z,46.70
2023-04-16T04:51:40.596Z,47.50
2023-04-16T04:52:40.583Z,47.70
2023-04-16T04:53:40.545Z,44.40
2023-04-16T04:54:40.552Z,46.10
2023-04-16T04:55:40.527Z,47.10
2023-04-16T04:56:40.547Z,45.50
2023-04-16T04:57:40.507Z,46.00
2023-04-16T04:58:40.503Z,49.10
2023-04-16T04:59:40.486Z,45.70
2023-04-16T05:00:40.482Z,46.70
2023-04-16T05:01:40.515Z,47.00
2023-04-16T05:02:40.561Z,45.70
2023-04-16T05:03:40.569Z,46.40
2023-04-16T05:04:40.467Z,46.00
2023-04-16T05:05:40.420Z,46.10
2023-04-16T05:06:40.432Z,47.20
2023-04-16T05:07:40.400Z,45.40
2023-04-16T05:08:40.389Z,46.20
2023-04-16T05:09:40.371Z,47.90
2023-04-16T05:10:40.368Z,46.10
2023-04-16T05:11:40.377Z,47.50
2023-04-16T05:12:40.345Z,46.60
2023-04-16T05:13:40.380Z,47.50
2023-04-16T05:14:40.320Z,45.80
2023-04-16T05:15:40.311Z,47.00
2023-04-16T05:16:40.355Z,46.10
2023-04-16T05:17:40.301Z,44.40
2023-04-16T05:18:40.287Z,47.50
2023-04-16T05:19:40.275Z,46.50
2023-04-16T05:20:40.260Z,47.50
2023-04-16T05:21:40.280Z,47.70
2023-04-16T05:22:40.233Z,47.60
2023-04-16T05:23:40.249Z,47.20
2023-04-16T05:24:40.215Z,46.40
2023-04-16T05:25:40.196Z,47.00
2023-04-16T05:26:40.187Z,48.40
2023-04-16T05:27:40.170Z,46.60
2023-04-16T05:28:40.166Z,48.60
2023-04-16T05:29:40.196Z,48.50
2023-04-16T05:30:40.186Z,46.10
2023-04-16T05:31:40.127Z,47.30
2023-04-16T05:32:40.162Z,47.10
2023-04-16T05:33:40.105Z,49.20
2023-04-16T05:34:40.103Z,48.00
2023-04-16T05:35:40.126Z,47.30
2023-04-16T05:36:40.095Z,47.50
2023-04-16T05:37:40.062Z,49.50
2023-04-16T05:38:40.056Z,46.80
2023-04-16T05:39:40.070Z,44.50
2023-04-16T05:40:40.038Z,46.20
2023-04-16T05:41:40.046Z,46.90
2023-04-16T05:42:40.010Z,44.30
2023-04-16T05:43:40.017Z,45.10
2023-04-16T05:44:39.984Z,46.70
2023-04-16T05:45:40.001Z,46.00
2023-04-16T05:46:40.014Z,46.30
2023-04-16T05:47:40.008Z,45.70
2023-04-16T05:48:39.955Z,45.50
2023-04-16T05:49:39.932Z,45.20
2023-04-16T05:50:39.921Z,44.70
2023-04-16T05:51:39.922Z,44.50
2023-04-16T05:52:39.898Z,45.20
2023-04-16T05:53:39.885Z,46.20
2023-04-16T05:54:39.892Z,45.40
2023-04-16T05:55:39.863Z,44.60
2023-04-16T05:56:39.903Z,46.10
2023-04-16T05:57:39.840Z,46.90
2023-04-16T05:58:39.830Z,45.80
2023-04-16T05:59:39.843Z,46.20
2023-04-16T06:00:39.802Z,44.40
2023-04-16T06:01:39.895Z,46.50
2023-04-16T06:02:39.901Z,46.20
2023-04-16T06:03:39.846Z,45.80
2023-04-16T06:04:39.781Z,46.10
2023-04-16T06:05:39.802Z,47.70
2023-04-16T06:06:39.793Z,45.20
2023-04-16T06:07:39.719Z,45.20
2023-04-16T06:08:39.714Z,44.90
2023-04-16T06:09:39.701Z,45.20
2023-04-16T06:10:39.690Z,44.90
2023-04-16T06:11:39.743Z,44.00
2023-04-16T06:12:39.709Z,44.50
2023-04-16T06:13:39.684Z,45.40
2023-04-16T06:14:39.653Z,44.30
2023-04-16T06:15:39.691Z,41.90
2023-04-16T06:16:39.655Z,42.50
2023-04-16T06:17:39.655Z,42.80
2023-04-16T06:18:39.641Z,42.70
2023-04-16T06:19:39.591Z,42.90
2023-04-16T06:20:39.588Z,43.30
2023-04-16T06:21:39.586Z,42.70
2023-04-16T06:22:39.573Z,42.40
2023-04-16T06:23:39.543Z,42.10
2023-04-16T06:24:39.550Z,43.40
2023-04-16T06:25:39.578Z,41.30
2023-04-16T06:26:39.563Z,41.50
2023-04-16T06:27:39.500Z,40.60
2023-04-16T06:28:39.542Z,40.50
2023-04-16T06:29:41.376Z,40.30
2023-04-16T06:30:39.487Z,40.90
2023-04-16T06:31:39.504Z,41.70
2023-04-16T06:32:39.489Z,40.20
2023-04-16T06:33:39.452Z,41.00
2023-04-16T06:34:39.439Z,40.80
2023-04-16T06:35:39.438Z,41.70
2023-04-16T06:36:39.448Z,40.00
2023-04-16T06:37:39.405Z,40.40
2023-04-16T06:38:39.386Z,41.90
2023-04-16T06:39:39.368Z,41.50
2023-04-16T06:40:39.380Z,42.20
2023-04-16T06:41:39.359Z,40.40
2023-04-16T06:42:39.365Z,42.90
2023-04-16T06:43:39.328Z,41.40
2023-04-16T06:44:39.332Z,42.70
2023-04-16T06:45:39.307Z,41.70
2023-04-16T06:46:39.373Z,40.90
2023-04-16T06:47:39.362Z,41.50
2023-04-16T06:48:39.264Z,42.70
2023-04-16T06:49:39.275Z,42.20
2023-04-16T06:50:39.247Z,42.80
2023-04-16T06:51:39.261Z,41.60
2023-04-16T06:52:39.220Z,42.20
2023-04-16T06:53:39.227Z,40.90
2023-04-16T06:54:39.193Z,39.70
2023-04-16T06:55:39.216Z,42.90
2023-04-16T06:56:39.197Z,42.10
2023-04-16T06:57:39.189Z,40.70
2023-04-16T06:58:39.149Z,43.00
2023-04-16T06:59:39.165Z,42.90
2023-04-16T07:00:39.160Z,41.60
2023-04-16T07:01:39.156Z,42.20
2023-04-16T07:02:39.244Z,41.10
2023-04-16T07:03:39.322Z,41.90
2023-04-16T07:04:39.089Z,42.20
2023-04-16T07:05:39.080Z,43.10
2023-04-16T07:06:39.095Z,43.10
2023-04-16T07:07:39.066Z,41.90
2023-04-16T07:08:39.039Z,41.60
2023-04-16T07:09:39.036Z,42.40
2023-04-16T07:10:39.037Z,41.70
2023-04-16T07:11:39.033Z,41.60
2023-04-16T07:12:39.020Z,42.90
2023-04-16T07:13:38.995Z,42.70
2023-04-16T07:14:38.969Z,41.10
2023-04-16T07:15:38.974Z,41.30
2023-04-16T07:16:38.996Z,41.30
2023-04-16T07:17:39.016Z,43.30
2023-04-16T07:18:38.949Z,41.70
2023-04-16T07:19:38.942Z,41.40
2023-04-16T07:20:38.905Z,41.80
2023-04-16T07:21:38.937Z,41.10
2023-04-16T07:22:38.895Z,41.40
2023-04-16T07:23:38.881Z,40.40
2023-04-16T07:24:38.868Z,40.50
2023-04-16T07:25:38.857Z,40.30
2023-04-16T07:26:38.886Z,41.00
2023-04-16T07:27:38.828Z,40.20
2023-04-16T07:28:38.845Z,40.40
2023-04-16T07:29:38.814Z,39.90
2023-04-16T07:30:38.809Z,40.90
2023-04-16T07:31:38.913Z,40.70
2023-04-16T07:32:38.841Z,40.60
2023-04-16T07:33:38.768Z,40.50
2023-04-16T07:34:38.753Z,38.40
2023-04-16T07:35:38.759Z,39.90
2023-04-16T07:36:38.751Z,40.70
2023-04-16T07:37:38.739Z,41.70
2023-04-16T07:38:38.718Z,40.30
2023-04-16T07:39:38.712Z,41.30
2023-04-16T07:40:38.683Z,39.30
2023-04-16T07:41:38.703Z,40.00
2023-04-16T07:42:38.668Z,39.40
2023-04-16T07:43:38.657Z,39.30
2023-04-16T07:44:38.646Z,40.60
2023-04-16T07:45:38.684Z,40.10
2023-04-16T07:46:46.824Z,39.70
2023-04-16T07:47:38.640Z,39.00
2023-04-16T07:48:38.598Z,39.70
2023-04-16T07:49:38.598Z,39.30
2023-04-16T07:50:38.576Z,37.80
2023-04-16T07:51:38.588Z,38.00
2023-04-16T07:52:38.557Z,38.90
2023-04-16T07:53:38.558Z,39.30
2023-04-16T07:54:38.536Z,38.70
2023-04-16T07:55:38.514Z,38.00
2023-04-16T07:56:38.550Z,38.80
2023-04-16T07:57:38.548Z,39.80
2023-04-16T07:58:38.483Z,39.00
2023-04-16T07:59:38.477Z,39.10
2023-04-16T08:00:38.482Z,39.70
2023-04-16T08:01:38.472Z,38.60
2023-04-16T08:02:38.673Z,40.10
2023-04-16T08:03:38.632Z,39.30
2023-04-16T08:04:38.739Z,39.70
2023-04-16T08:05:38.412Z,41.00
2023-04-16T08:06:38.426Z,39.00
2023-04-16T08:07:38.391Z,38.90
2023-04-16T08:08:38.381Z,39.60
2023-04-16T08:09:38.397Z,39.80
2023-04-16T08:10:38.344Z,38.50
2023-04-16T08:11:38.364Z,39.80
2023-04-16T08:12:38.341Z,39.70
2023-04-16T08:13:38.327Z,39.70
2023-04-16T08:14:38.307Z,38.50
2023-04-16T08:15:38.313Z,39.30
2023-04-16T08:16:38.300Z,38.50
2023-04-16T08:17:38.314Z,41.10
2023-04-16T08:18:38.272Z,38.50
2023-04-16T08:19:38.260Z,39.60
2023-04-16T08:20:38.261Z,38.50
2023-04-16T08:21:38.285Z,40.00
2023-04-16T08:22:38.218Z,39.10
2023-04-16T08:23:38.206Z,38.20
2023-04-16T08:24:38.220Z,38.90
2023-04-16T08:25:38.204Z,38.50
2023-04-16T08:26:38.171Z,38.40
2023-04-16T08:27:38.189Z,38.80
2023-04-16T08:28:38.149Z,38.40
2023-04-16T08:29:38.157Z,39.20
2023-04-16T08:30:38.136Z,38.70
2023-04-16T08:31:38.143Z,39.00
2023-04-16T08:32:38.167Z,36.70
2023-04-16T08:33:38.121Z,37.20
2023-04-16T08:34:38.131Z,38.20
2023-04-16T08:35:38.083Z,36.60
2023-04-16T08:36:38.058Z,37.20
2023-04-16T08:37:38.060Z,37.70
2023-04-16T08:38:38.038Z,36.40
2023-04-16T08:39:38.063Z,37.00
2023-04-16T08:40:38.015Z,36.40
2023-04-16T08:41:38.013Z,35.80
2023-04-16T08:42:37.999Z,36.40
2023-04-16T08:43:37.999Z,36.90
2023-04-16T08:44:37.971Z,37.20
2023-04-16T08:45:37.984Z,37.40
2023-04-16T08:46:38.120Z,36.70
2023-04-16T08:47:38.004Z,36.50
2023-04-16T08:48:37.934Z,36.80
2023-04-16T08:49:37.921Z,37.30
2023-04-16T08:50:37.910Z,35.90
2023-04-16T08:51:37.917Z,36.30
2023-04-16T08:52:37.890Z,36.60
2023-04-16T08:53:37.921Z,37.00
2023-04-16T08:54:37.865Z,36.60
2023-04-16T08:55:37.861Z,36.90
2023-04-16T08:56:37.861Z,35.30
2023-04-16T08:57:37.836Z,35.90
2023-04-16T08:58:37.815Z,35.50
2023-04-16T08:59:37.831Z,35.40
2023-04-16T09:00:37.797Z,35.10
2023-04-16T09:01:37.848Z,35.30
2023-04-16T09:02:38.207Z,35.20
2023-04-16T09:03:37.915Z,34.50
2023-04-16T09:04:37.841Z,34.10
2023-04-16T09:05:37.754Z,35.40
2023-04-16T09:06:37.757Z,35.90
2023-04-16T09:07:37.721Z,35.30
2023-04-16T09:08:37.699Z,36.20
2023-04-16T09:09:37.695Z,35.60
2023-04-16T09:10:37.681Z,34.10
2023-04-16T09:11:37.690Z,35.60
2023-04-16T09:12:37.661Z,35.80
2023-04-16T09:13:37.653Z,34.60
2023-04-16T09:14:37.647Z,34.50
2023-04-16T09:15:37.650Z,32.80
2023-04-16T09:16:37.717Z,32.80
2023-04-16T09:17:37.617Z,32.00
2023-04-16T09:18:37.598Z,32.70
2023-04-16T09:19:37.600Z,32.90
2023-04-16T09:20:37.567Z,32.90
2023-04-16T09:21:37.580Z,32.50
2023-04-16T09:22:37.547Z,33.10
2023-04-16T09:23:37.553Z,31.90
2023-04-16T09:24:37.521Z,31.60
2023-04-16T09:25:37.516Z,31.80
2023-04-16T09:26:37.535Z,30.40
2023-04-16T09:27:37.494Z,27.60
2023-04-16T09:28:37.521Z,27.40
2023-04-16T09:29:37.497Z,27.70
2023-04-16T09:30:37.456Z,27.30
2023-04-16T09:31:37.498Z,27.70
2023-04-16T09:32:37.505Z,28.00
2023-04-16T09:33:37.437Z,26.70
2023-04-16T09:34:37.420Z,23.60
2023-04-16T09:35:37.436Z,26.90
2023-04-16T09:36:37.423Z,27.30
2023-04-16T09:37:37.406Z,27.40
2023-04-16T09:38:37.370Z,26.90
2023-04-16T09:39:37.362Z,27.30
2023-04-16T09:40:37.356Z,26.70
2023-04-16T09:41:37.362Z,25.30
2023-04-16T09:42:37.448Z,27.00
2023-04-16T09:43:37.323Z,27.20
2023-04-16T09:44:37.317Z,26.70
2023-04-16T09:45:37.314Z,25.80
2023-04-16T09:46:37.300Z,26.30
2023-04-16T09:47:37.324Z,25.50
2023-04-16T09:48:37.273Z,25.10
2023-04-16T09:49:37.263Z,25.10
2023-04-16T09:50:37.240Z,23.30
2023-04-16T09:51:37.260Z,24.10
2023-04-16T09:52:37.212Z,23.90
2023-04-16T09:53:37.207Z,22.80
2023-04-16T09:54:37.187Z,21.80
2023-04-16T09:55:37.184Z,22.20
2023-04-16T09:56:37.198Z,22.00
2023-04-16T09:57:37.164Z,22.70
2023-04-16T09:58:37.160Z,21.10
2023-04-16T09:59:37.149Z,21.60
2023-04-16T10:00:43.288Z,20.60
2023-04-16T10:01:37.168Z,20.90
2023-04-16T10:02:37.137Z,21.40
2023-04-16T10:03:37.400Z,21.30
2023-04-16T10:04:37.143Z,20.60
2023-04-16T10:05:37.082Z,20.10
2023-04-16T10:06:37.093Z,20.20
2023-04-16T10:07:37.057Z,21.20
2023-04-16T10:08:37.045Z,21.00
2023-04-16T10:09:37.040Z,21.60
2023-04-16T10:10:37.019Z,21.20
2023-04-16T10:11:37.035Z,21.10
2023-04-16T10:12:36.993Z,20.20
2023-04-16T10:13:36.993Z,20.70
2023-04-16T10:14:36.984Z,20.30
2023-04-16T10:15:36.984Z,19.50
2023-04-16T10:16:37.014Z,20.50
2023-04-16T10:17:37.021Z,20.30
2023-04-16T10:18:36.934Z,19.80
2023-04-16T10:19:36.929Z,19.40
2023-04-16T10:20:36.905Z,19.90
2023-04-16T10:21:36.924Z,20.20
2023-04-16T10:22:36.899Z,20.90
2023-04-16T10:23:36.885Z,22.40
2023-04-16T10:24:36.868Z,23.30
2023-04-16T10:25:36.861Z,24.30
2023-04-16T10:26:36.884Z,22.70
2023-04-16T10:27:36.847Z,24.40
2023-04-16T10:28:36.840Z,24.30
2023-04-16T10:29:36.813Z,23.70
2023-04-16T10:30:36.821Z,24.10
2023-04-16T10:31:36.817Z,24.10
2023-04-16T10:32:36.879Z,23.40
2023-04-16T10:33:36.767Z,23.30
2023-04-16T10:34:36.761Z,24.10
2023-04-16T10:35:36.746Z,24.10
2023-04-16T10:36:36.752Z,23.30
2023-04-16T10:37:36.732Z,23.40
2023-04-16T10:38:36.712Z,22.40
2023-04-16T10:39:36.705Z,22.50
2023-04-16T10:40:36.692Z,22.90
2023-04-16T10:41:36.703Z,22.40
2023-04-16T10:42:36.668Z,21.30
2023-04-16T10:43:36.669Z,21.50
2023-04-16T10:44:36.647Z,22.30
2023-04-16T10:45:36.645Z,21.60
2023-04-16T10:46:36.686Z,21.60
2023-04-16T10:47:36.645Z,22.00
2023-04-16T10:48:46.742Z,22.50
2023-04-16T10:49:36.602Z,21.50
2023-04-16T10:50:36.585Z,21.20
2023-04-16T10:51:36.599Z,21.10
2023-04-16T10:52:36.560Z,21.00
2023-04-16T10:53:36.551Z,20.30
2023-04-16T10:54:36.555Z,19.20
2023-04-16T10:55:36.533Z,19.70
2023-04-16T10:56:36.540Z,19.90
2023-04-16T10:57:36.509Z,19.40
2023-04-16T10:58:36.506Z,19.00
2023-04-16T10:59:36.481Z,19.40
2023-04-16T11:00:36.478Z,18.70
2023-04-16T11:01:36.570Z,19.90
2023-04-16T11:02:36.617Z,19.00
2023-04-16T11:03:36.561Z,18.70
2023-04-16T11:04:36.512Z,18.50
2023-04-16T11:05:36.426Z,18.70
2023-04-16T11:06:36.436Z,18.70
2023-04-16T11:07:36.394Z,17.90
2023-04-16T11:08:44.308Z,18.90
2023-04-16T11:09:36.375Z,18.80
2023-04-16T11:10:36.380Z,18.70
2023-04-16T11:11:36.369Z,17.70
2023-04-16T11:12:36.336Z,18.80
2023-04-16T11:13:36.327Z,17.90
2023-04-16T11:14:36.315Z,17.10
2023-04-16T11:15:36.299Z,17.10
2023-04-16T11:16:36.319Z,18.40
2023-04-16T11:17:36.307Z,17.70
2023-04-16T11:18:36.284Z,18.30
2023-04-16T11:19:36.258Z,19.20
2023-04-16T11:20:36.247Z,18.20
2023-04-16T11:21:36.258Z,18.70
2023-04-16T11:22:36.239Z,19.60
2023-04-16T11:23:36.221Z,19.00
2023-04-16T11:24:36.209Z,17.60
2023-04-16T11:25:36.192Z,18.20
2023-04-16T11:26:36.207Z,18.50
2023-04-16T11:27:36.164Z,18.20
2023-04-16T11:28:36.159Z,17.30
2023-04-16T11:29:36.138Z,17.10
2023-04-16T11:30:36.144Z,16.90
2023-04-16T11:31:36.213Z,17.70
2023-04-16T11:32:36.156Z,18.20
2023-04-16T11:33:36.097Z,16.70
2023-04-16T11:34:36.086Z,17.80
2023-04-16T11:35:36.100Z,17.90
2023-04-16T11:36:36.090Z,18.10
2023-04-16T11:37:36.061Z,18.40
2023-04-16T11:38:36.058Z,17.90
2023-04-16T11:39:36.032Z,16.90
2023-04-16T11:40:36.158Z,17.10
2023-04-16T11:41:36.015Z,17.00
2023-04-16T11:42:36.053Z,16.80
2023-04-16T11:43:35.981Z,17.00
2023-04-16T11:44:35.981Z,17.10
2023-04-16T11:45:35.957Z,17.70
2023-04-16T11:46:35.987Z,18.20
2023-04-16T11:47:36.008Z,19.10
2023-04-16T11:48:35.931Z,17.80
2023-04-16T11:49:35.931Z,18.50
2023-04-16T11:50:35.906Z,18.10
2023-04-16T11:51:35.917Z,18.40
2023-04-16T11:52:35.899Z,18.80
2023-04-16T11:53:35.868Z,18.00
2023-04-16T11:54:35.868Z,16.90
2023-04-16T11:55:35.867Z,18.40
2023-04-16T11:56:35.858Z,18.10
2023-04-16T11:57:35.822Z,19.50
2023-04-16T11:58:35.818Z,18.70
2023-04-16T11:59:35.817Z,18.00
2023-04-16T12:00:35.796Z,17.90
2023-04-16T12:01:35.797Z,17.80
2023-04-16T12:02:35.926Z,17.80
2023-04-16T12:03:36.064Z,18.50
2023-04-16T12:04:35.838Z,18.10
2023-04-16T12:05:35.724Z,17.60
2023-04-16T12:06:35.751Z,18.60
2023-04-16T12:07:35.708Z,17.80
2023-04-16T12:08:35.706Z,17.40
2023-04-16T12:09:37.134Z,17.40
2023-04-16T12:10:35.688Z,17.60
2023-04-16T12:11:35.695Z,18.30
2023-04-16T12:12:35.662Z,17.60
2023-04-16T12:13:35.647Z,18.00
2023-04-16T12:14:35.635Z,18.00
2023-04-16T12:15:35.624Z,18.80
2023-04-16T12:16:35.942Z,17.80
2023-04-16T12:17:35.648Z,18.60
2023-04-16T12:18:35.590Z,16.80
2023-04-16T12:19:35.575Z,18.20
2023-04-16T12:20:35.563Z,18.50
2023-04-16T12:21:35.571Z,18.50
2023-04-16T12:22:37.137Z,18.20
2023-04-16T12:23:35.523Z,18.10
2023-04-16T12:24:35.513Z,17.80
2023-04-16T12:25:35.504Z,19.00
2023-04-16T12:26:35.519Z,17.90
2023-04-16T12:27:35.484Z,18.00
2023-04-16T12:28:35.554Z,17.60
2023-04-16T12:29:35.472Z,17.90
2023-04-16T12:30:35.482Z,18.40
2023-04-16T12:31:36.246Z,18.70
2023-04-16T12:32:35.470Z,18.30
2023-04-16T12:33:35.462Z,18.70
2023-04-16T12:34:48.116Z,19.70
2023-04-16T12:35:35.877Z,18.70
2023-04-16T12:36:35.382Z,17.90
2023-04-16T12:37:35.375Z,18.60
2023-04-16T12:38:35.360Z,18.90
2023-04-16T12:39:35.341Z,17.60
2023-04-16T12:40:35.360Z,19.20
2023-04-16T12:41:35.359Z,19.40
2023-04-16T12:42:35.326Z,19.20
2023-04-16T12:43:35.293Z,19.60
2023-04-16T12:44:35.298Z,19.70
2023-04-16T12:45:35.313Z,19.90
2023-04-16T12:46:35.307Z,19.40
2023-04-16T12:47:35.272Z,19.70
2023-04-16T12:48:35.242Z,19.70
2023-04-16T12:49:35.229Z,19.50
2023-04-16T12:50:35.247Z,19.00
2023-04-16T12:51:35.209Z,19.90
2023-04-16T12:52:35.202Z,19.40